createdAt,value
2018-06-27T00:00:02.184Z,0.00
2018-06-27T00:01:02.664Z,0.00
2018-06-27T00:02:02.943Z,0.00
2018-06-27T00:03:02.627Z,0.00
2018-06-27T00:04:02.096Z,0.00
2018-06-27T00:05:02.719Z,0.00
2018-06-27T00:06:02.037Z,0.00
2018-06-27T00:07:02.572Z,0.00
2018-06-27T00:08:02.118Z,0.00
2018-06-27T00:09:02.679Z,0.00
2018-06-27T00:10:02.319Z,0.00
2018-06-27T00:11:26.396Z,0.00
2018-06-27T00:12:26.723Z,0.00
2018-06-27T00:13:26.317Z,0.00
2018-06-27T00:14:26.814Z,0.00
2018-06-27T00:15:26.498Z,0.00
2018-06-27T00:16:27.075Z,0.00
2018-06-27T00:17:26.615Z,0.00
2018-06-27T00:18:27.208Z,0.00
2018-06-27T00:19:26.757Z,0.00
2018-06-27T00:20:26.275Z,0.00
2018-06-27T00:21:26.963Z,0.00
2018-06-27T00:22:26.246Z,0.00
2018-06-27T00:23:26.443Z,0.00
2018-06-27T00:24:27.059Z,0.00
2018-06-27T00:25:26.639Z,0.00
2018-06-27T00:26:27.185Z,0.00
2018-06-27T00:27:26.862Z,0.00
2018-06-27T00:28:26.223Z,0.00
2018-06-27T00:29:26.963Z,0.00
2018-06-27T00:30:26.906Z,0.00
2018-06-27T00:31:26.395Z,0.00
2018-06-27T00:32:26.907Z,0.00
2018-06-27T00:33:26.289Z,0.00
2018-06-27T00:34:27.058Z,0.00
2018-06-27T00:35:26.536Z,0.00
2018-06-27T00:36:26.843Z,0.00
2018-06-27T00:37:26.604Z,0.00
2018-06-27T00:38:26.965Z,0.00
2018-06-27T00:39:26.432Z,0.00
2018-06-27T00:40:26.876Z,0.00
2018-06-27T00:41:26.448Z,0.00
2018-06-27T00:42:26.713Z,0.00
2018-06-27T00:43:26.385Z,0.00
2018-06-27T00:44:26.996Z,0.00
2018-06-27T00:45:26.469Z,0.00
2018-06-27T00:46:26.886Z,0.00
2018-06-27T00:47:26.311Z,0.00
2018-06-27T00:48:26.612Z,0.00
2018-06-27T00:49:50.690Z,0.00
2018-06-27T00:50:51.543Z,0.00
2018-06-27T00:51:51.005Z,0.00
2018-06-27T00:52:51.300Z,0.00
2018-06-27T00:53:50.789Z,0.00
2018-06-27T00:54:51.218Z,0.00
2018-06-27T00:55:50.896Z,0.00
2018-06-27T00:56:51.485Z,0.00
2018-06-27T00:57:51.050Z,0.00
2018-06-27T00:59:14.415Z,0.00
2018-06-27T01:00:15.005Z,0.00
2018-06-27T01:01:14.653Z,0.00
2018-06-27T01:02:14.436Z,0.00
2018-06-27T01:03:14.136Z,0.00
2018-06-27T01:04:14.601Z,0.00
2018-06-27T01:05:14.173Z,0.00
2018-06-27T01:06:14.633Z,0.00
2018-06-27T01:07:35.221Z,0.00
2018-06-27T01:08:35.935Z,0.00
2018-06-27T01:09:35.443Z,0.00
2018-06-27T01:10:36.047Z,0.00
2018-06-27T01:11:35.797Z,0.00
2018-06-27T01:12:36.038Z,0.00
2018-06-27T01:13:35.405Z,0.00
2018-06-27T01:14:35.953Z,0.00
2018-06-27T01:15:36.139Z,0.00
2018-06-27T01:16:58.831Z,0.00
2018-06-27T01:17:59.203Z,0.00
2018-06-27T01:18:59.927Z,0.00
2018-06-27T01:19:59.461Z,0.00
2018-06-27T01:20:58.869Z,0.00
2018-06-27T01:21:59.231Z,0.00
2018-06-27T01:22:59.821Z,0.00
2018-06-27T01:24:20.474Z,0.00
2018-06-27T01:25:20.716Z,0.00
2018-06-27T01:26:20.991Z,0.00
2018-06-27T01:27:21.440Z,0.00
2018-06-27T01:28:21.047Z,0.00
2018-06-27T01:29:21.419Z,0.00
2018-06-27T01:30:20.777Z,0.00
2018-06-27T01:31:42.247Z,0.00
2018-06-27T01:32:43.104Z,0.00
2018-06-27T01:33:42.661Z,0.00
2018-06-27T01:34:42.873Z,0.00
2018-06-27T01:35:42.445Z,0.00
2018-06-27T01:36:42.993Z,0.00
2018-06-27T01:37:42.552Z,0.00
2018-06-27T01:39:04.105Z,0.00
2018-06-27T01:40:04.618Z,0.00
2018-06-27T01:41:04.263Z,0.00
2018-06-27T01:42:04.514Z,0.00
2018-06-27T01:43:04.815Z,0.00
2018-06-27T01:44:04.480Z,0.00
2018-06-27T01:45:28.186Z,0.00
2018-06-27T01:46:28.674Z,0.00
2018-06-27T01:47:29.066Z,0.00
2018-06-27T01:48:28.478Z,0.00
2018-06-27T01:49:28.923Z,0.00
2018-06-27T01:50:28.504Z,0.00
2018-06-27T01:51:29.779Z,0.00
2018-06-27T01:52:29.156Z,0.00
2018-06-27T01:53:28.468Z,0.00
2018-06-27T01:54:50.219Z,0.00
2018-06-27T01:55:53.306Z,0.00
2018-06-27T01:56:55.504Z,0.00
2018-06-27T01:57:50.996Z,0.00
2018-06-27T01:58:50.532Z,0.00
2018-06-27T01:59:51.010Z,0.00
2018-06-27T02:00:50.466Z,0.00
2018-06-27T02:02:14.074Z,0.00
2018-06-27T02:03:14.814Z,0.00
2018-06-27T02:04:14.559Z,0.00
2018-06-27T02:05:13.987Z,0.00
2018-06-27T02:06:14.599Z,1.00
2018-06-27T02:07:14.171Z,1.00
2018-06-27T02:08:14.571Z,1.00
2018-06-27T02:09:13.948Z,1.00
2018-06-27T02:10:14.378Z,0.00
2018-06-27T02:11:14.719Z,1.00
2018-06-27T02:12:14.437Z,1.00
2018-06-27T02:13:37.167Z,1.00
2018-06-27T02:14:37.539Z,2.00
2018-06-27T02:15:37.195Z,1.00
2018-06-27T02:16:37.779Z,1.00
2018-06-27T02:17:37.007Z,2.00
2018-06-27T02:19:00.685Z,2.00
2018-06-27T02:20:01.140Z,2.00
2018-06-27T02:21:01.829Z,2.00
2018-06-27T02:22:01.222Z,3.00
2018-06-27T02:23:01.485Z,3.00
2018-06-27T02:24:00.887Z,3.00
2018-06-27T02:25:01.320Z,4.00
2018-06-27T02:26:01.618Z,5.00
2018-06-27T02:27:01.686Z,5.00
2018-06-27T02:28:01.046Z,5.00
2018-06-27T02:29:01.460Z,6.00
2018-06-27T02:30:00.713Z,6.00
2018-06-27T02:31:22.716Z,8.00
2018-06-27T02:32:23.383Z,9.00
2018-06-27T02:33:23.243Z,10.00
2018-06-27T02:34:22.815Z,11.00
2018-06-27T02:35:23.497Z,13.00
2018-06-27T02:36:23.044Z,14.00
2018-06-27T02:37:23.457Z,17.00
2018-06-27T02:38:22.907Z,19.00
2018-06-27T02:39:23.340Z,21.00
2018-06-27T02:40:22.833Z,23.00
2018-06-27T02:41:23.451Z,26.00
2018-06-27T02:42:23.013Z,29.00
2018-06-27T02:43:44.910Z,34.00
2018-06-27T02:44:45.370Z,38.00
2018-06-27T02:45:44.769Z,43.00
2018-06-27T02:46:45.542Z,48.00
2018-06-27T02:47:45.209Z,54.00
2018-06-27T02:48:45.409Z,61.00
2018-06-27T02:49:45.074Z,67.00
2018-06-27T02:50:45.696Z,74.00
2018-06-27T02:51:45.030Z,82.00
2018-06-27T02:52:45.725Z,91.00
2018-06-27T02:53:45.255Z,100.00
2018-06-27T02:54:45.658Z,111.00
2018-06-27T02:55:45.270Z,121.00
2018-06-27T02:56:44.950Z,132.00
2018-06-27T02:57:45.563Z,146.00
2018-06-27T02:58:44.906Z,159.00
2018-06-27T02:59:45.284Z,173.00
2018-06-27T03:00:44.883Z,188.00
2018-06-27T03:01:45.376Z,205.00
2018-06-27T03:03:06.386Z,228.00
2018-06-27T03:04:07.788Z,246.00
2018-06-27T03:05:07.132Z,266.00
2018-06-27T03:06:06.663Z,287.00
2018-06-27T03:07:07.035Z,308.00
2018-06-27T03:08:06.351Z,331.00
2018-06-27T03:09:06.832Z,355.00
2018-06-27T03:10:06.439Z,379.00
2018-06-27T03:11:06.988Z,405.00
2018-06-27T03:12:28.010Z,443.00
2018-06-27T03:13:28.713Z,471.00
2018-06-27T03:14:28.472Z,500.00
2018-06-27T03:15:28.113Z,530.00
2018-06-27T03:16:28.500Z,560.00
2018-06-27T03:17:28.097Z,591.00
2018-06-27T03:18:28.637Z,625.00
2018-06-27T03:19:27.968Z,657.00
2018-06-27T03:20:28.350Z,693.00
2018-06-27T03:21:27.820Z,728.00
2018-06-27T03:22:28.601Z,764.00
2018-06-27T03:23:28.263Z,800.00
2018-06-27T03:24:49.317Z,852.00
2018-06-27T03:26:11.372Z,905.00
2018-06-27T03:27:12.016Z,942.00
2018-06-27T03:28:32.942Z,997.00
2018-06-27T03:30:17.993Z,1069.00
2018-06-27T03:31:18.520Z,1112.00
2018-06-27T03:32:18.305Z,1155.00
2018-06-27T03:33:40.605Z,1215.00
2018-06-27T03:34:41.126Z,1263.00
2018-06-27T03:35:40.614Z,1310.00
2018-06-27T03:36:41.179Z,1366.00
2018-06-27T03:37:40.693Z,1425.00
2018-06-27T03:38:41.535Z,1483.00
2018-06-27T03:39:40.867Z,1537.00
2018-06-27T03:40:40.404Z,1590.00
2018-06-27T03:41:41.143Z,1645.00
2018-06-27T03:42:40.776Z,1698.00
2018-06-27T03:43:41.350Z,1754.00
2018-06-27T03:45:03.821Z,1823.00
2018-06-27T03:46:04.292Z,1869.00
2018-06-27T03:47:04.780Z,1917.00
2018-06-27T03:48:04.370Z,1961.00
2018-06-27T03:49:04.116Z,2002.00
2018-06-27T03:50:04.974Z,2046.00
2018-06-27T03:51:04.380Z,2096.00
2018-06-27T03:52:28.272Z,2168.00
2018-06-27T03:53:28.743Z,2224.00
2018-06-27T03:54:28.373Z,2278.00
2018-06-27T03:55:28.847Z,2340.00
2018-06-27T03:56:51.824Z,2410.00
2018-06-27T03:57:52.274Z,2456.00
2018-06-27T03:58:52.929Z,2505.00
2018-06-27T03:59:52.412Z,2558.00
2018-06-27T04:00:52.998Z,2616.00
2018-06-27T04:01:52.564Z,2668.00
2018-06-27T04:02:52.113Z,2726.00
2018-06-27T04:03:52.923Z,2773.00
2018-06-27T04:04:52.565Z,2838.00
2018-06-27T04:05:52.221Z,2893.00
2018-06-27T04:06:52.887Z,2951.00
2018-06-27T04:07:52.574Z,3002.00
2018-06-27T04:09:15.747Z,3086.00
2018-06-27T04:10:16.480Z,3156.00
2018-06-27T04:11:16.028Z,3225.00
2018-06-27T04:12:36.771Z,3304.00
2018-06-27T04:14:00.609Z,3434.00
2018-06-27T04:15:01.248Z,3512.00
2018-06-27T04:16:22.790Z,3608.00
2018-06-27T04:17:23.519Z,3686.00
2018-06-27T04:18:23.136Z,3775.00
2018-06-27T04:19:23.687Z,3813.00
2018-06-27T04:20:23.169Z,3893.00
2018-06-27T04:21:22.642Z,3948.00
2018-06-27T04:22:46.544Z,4051.00
2018-06-27T04:23:46.976Z,4116.00
2018-06-27T04:24:47.410Z,4181.00
2018-06-27T04:25:47.311Z,4341.00
2018-06-27T04:26:46.864Z,4474.00
2018-06-27T04:27:47.460Z,4527.00
2018-06-27T04:28:47.492Z,4648.00
2018-06-27T04:29:46.956Z,4820.00
2018-06-27T04:30:46.644Z,5076.00
2018-06-27T04:31:47.364Z,4998.00
2018-06-27T04:33:31.355Z,5116.00
2018-06-27T04:34:29.945Z,5303.00
2018-06-27T04:35:30.923Z,5420.00
2018-06-27T04:36:30.542Z,5651.00
2018-06-27T04:37:30.106Z,5757.00
2018-06-27T04:38:30.520Z,5516.00
2018-06-27T04:39:30.345Z,5532.00
2018-06-27T04:40:51.635Z,5676.00
2018-06-27T04:41:52.456Z,5736.00
2018-06-27T04:43:13.626Z,5727.00
2018-06-27T04:44:14.396Z,5892.00
2018-06-27T04:45:14.116Z,6023.00
2018-06-27T04:46:13.617Z,6058.00
2018-06-27T04:47:14.412Z,6137.00
2018-06-27T04:48:14.204Z,6210.00
2018-06-27T04:49:13.636Z,6106.00
2018-06-27T04:50:14.403Z,6156.00
2018-06-27T04:51:14.268Z,6223.00
2018-06-27T04:52:13.906Z,6367.00
2018-06-27T04:53:13.820Z,6505.00
2018-06-27T04:54:14.634Z,6642.00
2018-06-27T04:55:14.379Z,6758.00
2018-06-27T04:56:14.188Z,6889.00
2018-06-27T04:57:13.674Z,6985.00
2018-06-27T04:58:14.173Z,7178.00
2018-06-27T04:59:37.320Z,7336.00
2018-06-27T05:00:37.759Z,7529.00
2018-06-27T05:01:37.395Z,7210.00
2018-06-27T05:03:24.744Z,7894.00
2018-06-27T05:04:48.871Z,7639.00
2018-06-27T05:05:49.302Z,8260.00
2018-06-27T05:07:36.136Z,7772.00
2018-06-27T05:08:57.441Z,9306.00
2018-06-27T05:09:58.227Z,9061.00
2018-06-27T05:10:57.652Z,8872.00
2018-06-27T05:11:57.527Z,10789.00
2018-06-27T05:12:58.216Z,9975.00
2018-06-27T05:14:21.311Z,11875.00
2018-06-27T05:15:21.985Z,8928.00
2018-06-27T05:16:21.880Z,10728.00
2018-06-27T05:17:21.518Z,10542.00
2018-06-27T05:18:22.184Z,8873.00
2018-06-27T05:19:21.796Z,10092.00
2018-06-27T05:20:21.428Z,10572.00
2018-06-27T05:21:22.030Z,9493.00
2018-06-27T05:22:21.550Z,9958.00
2018-06-27T05:23:21.106Z,9684.00
2018-06-27T05:24:21.537Z,10446.00
2018-06-27T05:25:22.232Z,11605.00
2018-06-27T05:26:21.839Z,10284.00
2018-06-27T05:27:21.254Z,9591.00
2018-06-27T05:28:21.268Z,9948.00
2018-06-27T05:29:22.091Z,10542.00
2018-06-27T05:30:21.549Z,11804.00
2018-06-27T05:31:22.096Z,12011.00
2018-06-27T05:32:21.957Z,11489.00
2018-06-27T05:33:21.803Z,12756.00
2018-06-27T05:34:44.745Z,14080.00
2018-06-27T05:35:45.164Z,13928.00
2018-06-27T05:36:44.871Z,13226.00
2018-06-27T05:37:45.474Z,13071.00
2018-06-27T05:38:45.272Z,13221.00
2018-06-27T05:39:44.898Z,17104.00
2018-06-27T05:41:30.496Z,21136.00
2018-06-27T05:42:31.246Z,20904.00
2018-06-27T05:43:30.984Z,24488.00
2018-06-27T05:44:55.203Z,17312.00
2018-06-27T05:45:55.809Z,18832.00
2018-06-27T05:46:55.262Z,17608.00
2018-06-27T05:47:56.041Z,19304.00
2018-06-27T05:48:56.096Z,22544.00
2018-06-27T05:50:19.645Z,27184.00
2018-06-27T05:51:20.632Z,24056.00
2018-06-27T05:52:20.520Z,20008.00
2018-06-27T05:53:41.307Z,20256.00
2018-06-27T05:54:41.939Z,19312.00
2018-06-27T05:55:41.423Z,18048.00
2018-06-27T05:57:06.348Z,18440.00
2018-06-27T05:58:07.285Z,19000.00
2018-06-27T05:59:07.156Z,19296.00
2018-06-27T06:00:07.113Z,15003.00
2018-06-27T06:01:06.769Z,18584.00
2018-06-27T06:02:53.978Z,15479.00
2018-06-27T06:03:53.618Z,14984.00
2018-06-27T06:04:54.162Z,12992.00
2018-06-27T06:05:53.757Z,21992.00
2018-06-27T06:06:53.562Z,20664.00
2018-06-27T06:07:53.399Z,22440.00
2018-06-27T06:08:53.890Z,17984.00
2018-06-27T06:10:17.481Z,19712.00
2018-06-27T06:11:18.484Z,19856.00
2018-06-27T06:12:18.148Z,18832.00
2018-06-27T06:13:18.006Z,15522.00
2018-06-27T06:14:17.714Z,18864.00
2018-06-27T06:15:17.680Z,20608.00
2018-06-27T06:16:19.035Z,19144.00
2018-06-27T06:17:18.102Z,20152.00
2018-06-27T06:18:49.298Z,21616.00
2018-06-27T06:19:44.475Z,21320.00
2018-06-27T06:21:12.334Z,20968.00
2018-06-27T06:22:10.863Z,20848.00
2018-06-27T06:23:11.558Z,22520.00
2018-06-27T06:24:11.083Z,23192.00
2018-06-27T06:25:11.791Z,24232.00
2018-06-27T06:26:54.105Z,24312.00
2018-06-27T06:27:54.497Z,24808.00
2018-06-27T06:28:55.032Z,26664.00
2018-06-27T06:29:54.690Z,30096.00
2018-06-27T06:30:54.406Z,30904.00
2018-06-27T06:31:55.207Z,30768.00
2018-06-27T06:32:55.012Z,32184.00
2018-06-27T06:34:18.104Z,35072.00
2018-06-27T06:35:18.767Z,38496.00
2018-06-27T06:36:18.620Z,41984.00
2018-06-27T06:37:18.224Z,39400.00
2018-06-27T06:38:18.795Z,49536.00
2018-06-27T06:39:18.383Z,47016.00
2018-06-27T06:40:18.310Z,33792.00
2018-06-27T06:41:18.234Z,40176.00
2018-06-27T06:42:18.967Z,28944.00
2018-06-27T06:43:18.770Z,47544.00
2018-06-27T06:44:18.508Z,38976.00
2018-06-27T06:45:18.332Z,40496.00
2018-06-27T06:46:19.050Z,31488.00
2018-06-27T06:47:18.939Z,15016.00
2018-06-27T06:48:18.758Z,43208.00
2018-06-27T06:49:18.361Z,40432.00
2018-06-27T06:50:18.014Z,38072.00
2018-06-27T06:51:18.529Z,25600.00
2018-06-27T06:52:18.210Z,31928.00
2018-06-27T06:53:19.193Z,32400.00
2018-06-27T06:54:18.756Z,30880.00
2018-06-27T06:55:18.149Z,38376.00
2018-06-27T06:56:18.718Z,43344.00
2018-06-27T06:57:18.621Z,51392.00
2018-06-27T06:58:18.498Z,21792.00
2018-06-27T06:59:18.301Z,33792.00
2018-06-27T07:00:18.962Z,37552.00
2018-06-27T07:01:18.783Z,25448.00
2018-06-27T07:02:18.487Z,62744.00
2018-06-27T07:03:41.937Z,21768.00
2018-06-27T07:04:42.674Z,39264.00
2018-06-27T07:05:42.339Z,16496.00
2018-06-27T07:06:41.878Z,19504.00
2018-06-27T07:07:42.535Z,22200.00
2018-06-27T07:08:42.156Z,24056.00
2018-06-27T07:09:41.736Z,24016.00
2018-06-27T07:10:42.393Z,23632.00
2018-06-27T07:11:42.202Z,25008.00
2018-06-27T07:12:41.873Z,16080.00
2018-06-27T07:13:42.691Z,8872.00
2018-06-27T07:15:05.997Z,39520.00
2018-06-27T07:16:06.551Z,53048.00
2018-06-27T07:17:29.499Z,42072.00
2018-06-27T07:18:30.249Z,44392.00
2018-06-27T07:19:29.770Z,35608.00
2018-06-27T07:20:30.727Z,30448.00
2018-06-27T07:21:30.344Z,33048.00
2018-06-27T07:22:54.703Z,32856.00
2018-06-27T07:23:55.146Z,38232.00
2018-06-27T07:24:54.817Z,35880.00
2018-06-27T07:25:55.650Z,35000.00
2018-06-27T07:26:55.273Z,35408.00
2018-06-27T07:27:54.959Z,37696.00
2018-06-27T07:28:54.744Z,37552.00
2018-06-27T07:30:15.999Z,32056.00
2018-06-27T07:31:38.278Z,30776.00
2018-06-27T07:32:38.845Z,31656.00
2018-06-27T07:33:38.635Z,28664.00
2018-06-27T07:34:38.367Z,30024.00
2018-06-27T07:35:39.353Z,25800.00
2018-06-27T07:36:38.941Z,7760.00
2018-06-27T07:37:38.637Z,65535.00
2018-06-27T07:38:39.438Z,8720.00
2018-06-27T07:39:39.724Z,53272.00
2018-06-27T07:40:38.534Z,40432.00
2018-06-27T07:41:39.034Z,37936.00
2018-06-27T07:42:39.278Z,48584.00
2018-06-27T07:43:39.225Z,46984.00
2018-06-27T07:45:02.186Z,52048.00
2018-06-27T07:46:02.874Z,52560.00
2018-06-27T07:47:02.373Z,38800.00
2018-06-27T07:48:02.929Z,0.00
2018-06-27T07:49:02.899Z,40488.00
2018-06-27T07:50:02.311Z,19784.00
2018-06-27T07:51:24.898Z,65535.00
2018-06-27T07:52:25.541Z,57496.00
2018-06-27T07:53:25.315Z,61232.00
2018-06-27T07:54:25.336Z,36424.00
2018-06-27T07:55:25.275Z,20768.00
2018-06-27T07:56:48.684Z,26312.00
2018-06-27T07:57:49.494Z,65535.00
2018-06-27T07:58:49.201Z,26280.00
2018-06-27T07:59:48.664Z,49640.00
2018-06-27T08:00:49.551Z,51680.00
2018-06-27T08:01:49.286Z,54368.00
2018-06-27T08:02:49.268Z,24688.00
2018-06-27T08:03:48.686Z,24536.00
2018-06-27T08:04:49.167Z,26392.00
2018-06-27T08:05:48.803Z,23944.00
2018-06-27T08:06:49.370Z,62224.00
2018-06-27T08:08:15.913Z,31808.00
2018-06-27T08:09:15.851Z,61952.00
2018-06-27T08:10:14.777Z,65535.00
2018-06-27T08:11:14.695Z,44056.00
2018-06-27T08:12:14.259Z,63896.00
2018-06-27T08:13:14.966Z,65535.00
2018-06-27T08:14:14.774Z,27392.00
2018-06-27T08:15:14.669Z,65535.00
2018-06-27T08:16:14.606Z,65535.00
2018-06-27T08:17:14.155Z,61312.00
2018-06-27T08:18:38.685Z,49208.00
2018-06-27T08:19:39.523Z,65535.00
2018-06-27T08:20:39.620Z,65535.00
2018-06-27T08:21:39.474Z,65535.00
2018-06-27T08:22:38.958Z,65535.00
2018-06-27T08:23:38.985Z,62184.00
2018-06-27T08:24:38.523Z,65535.00
2018-06-27T08:26:06.614Z,65535.00
2018-06-27T08:27:05.191Z,65535.00
2018-06-27T08:28:04.825Z,46336.00
2018-06-27T08:29:05.776Z,64952.00
2018-06-27T08:30:04.718Z,65535.00
2018-06-27T08:31:05.727Z,65535.00
2018-06-27T08:32:05.561Z,65535.00
2018-06-27T08:33:05.130Z,56528.00
2018-06-27T08:34:05.262Z,65535.00
2018-06-27T08:35:04.895Z,62776.00
2018-06-27T08:36:05.376Z,65535.00
2018-06-27T08:37:04.846Z,65535.00
2018-06-27T08:38:04.766Z,22024.00
2018-06-27T08:39:27.890Z,65535.00
2018-06-27T08:40:28.883Z,65535.00
2018-06-27T08:41:28.410Z,65535.00
2018-06-27T08:42:28.058Z,65535.00
2018-06-27T08:43:28.562Z,65535.00
2018-06-27T08:44:28.319Z,8904.00
2018-06-27T08:45:28.713Z,0.00
2018-06-27T08:46:28.266Z,65535.00
2018-06-27T08:47:29.161Z,65535.00
2018-06-27T08:48:29.143Z,65535.00
2018-06-27T08:49:29.181Z,65535.00
2018-06-27T08:50:28.810Z,65535.00
2018-06-27T08:51:52.494Z,65535.00
2018-06-27T08:52:54.131Z,65535.00
2018-06-27T08:53:53.120Z,65535.00
2018-06-27T08:54:52.612Z,65535.00
2018-06-27T08:55:52.357Z,65535.00
2018-06-27T08:56:52.850Z,65535.00
2018-06-27T08:58:16.448Z,65535.00
2018-06-27T08:59:16.935Z,65535.00
2018-06-27T09:00:16.897Z,65535.00
2018-06-27T09:01:16.732Z,65535.00
2018-06-27T09:02:40.304Z,65535.00
2018-06-27T09:03:39.924Z,65535.00
2018-06-27T09:04:40.635Z,65535.00
2018-06-27T09:05:40.534Z,65535.00
2018-06-27T09:06:40.010Z,65535.00
2018-06-27T09:07:41.036Z,65535.00
2018-06-27T09:08:40.940Z,65352.00
2018-06-27T09:09:40.892Z,65535.00
2018-06-27T09:10:40.740Z,65535.00
2018-06-27T09:11:40.423Z,65535.00
2018-06-27T09:12:40.405Z,65535.00
2018-06-27T09:13:40.348Z,40192.00
2018-06-27T09:14:39.971Z,65535.00
2018-06-27T09:15:41.630Z,65535.00
2018-06-27T09:16:40.107Z,65535.00
2018-06-27T09:17:41.029Z,65535.00
2018-06-27T09:18:40.596Z,65535.00
2018-06-27T09:19:40.109Z,65535.00
2018-06-27T09:20:41.220Z,65535.00
2018-06-27T09:21:40.751Z,65535.00
2018-06-27T09:22:40.460Z,65535.00
2018-06-27T09:24:04.360Z,62376.00
2018-06-27T09:25:04.910Z,64712.00
2018-06-27T09:26:04.904Z,65535.00
2018-06-27T09:27:05.091Z,65535.00
2018-06-27T09:28:28.158Z,32848.00
2018-06-27T09:29:52.693Z,65535.00
2018-06-27T09:31:16.297Z,49368.00
2018-06-27T09:32:16.829Z,42040.00
2018-06-27T09:34:04.201Z,40848.00
2018-06-27T09:35:04.661Z,39048.00
2018-06-27T09:36:04.742Z,58336.00
2018-06-27T09:37:04.845Z,65535.00
2018-06-27T09:38:04.436Z,65535.00
2018-06-27T09:39:04.056Z,65535.00
2018-06-27T09:40:03.798Z,38224.00
2018-06-27T09:41:04.278Z,65535.00
2018-06-27T09:42:04.278Z,0.00
2018-06-27T09:43:48.428Z,42168.00
2018-06-27T09:45:13.328Z,65535.00
2018-06-27T09:46:13.597Z,43960.00
2018-06-27T09:47:13.522Z,40464.00
2018-06-27T09:48:36.572Z,55016.00
2018-06-27T09:49:37.316Z,65535.00
2018-06-27T09:50:38.472Z,34112.00
2018-06-27T09:51:37.035Z,64032.00
2018-06-27T09:52:36.950Z,65535.00
2018-06-27T09:53:37.361Z,65535.00
2018-06-27T09:55:24.454Z,65535.00
2018-06-27T09:56:24.514Z,65535.00
2018-06-27T09:57:24.802Z,65535.00
2018-06-27T09:58:47.830Z,65535.00
2018-06-27T09:59:48.475Z,65535.00
2018-06-27T10:00:48.088Z,65535.00
2018-06-27T10:01:48.978Z,65535.00
2018-06-27T10:02:48.538Z,65535.00
2018-06-27T10:03:48.506Z,65535.00
2018-06-27T10:04:48.424Z,65535.00
2018-06-27T10:05:48.265Z,65535.00
2018-06-27T10:06:47.856Z,65535.00
2018-06-27T10:07:49.087Z,65535.00
2018-06-27T10:08:47.712Z,0.00
2018-06-27T10:10:11.669Z,65535.00
2018-06-27T10:11:12.294Z,65535.00
2018-06-27T10:12:12.129Z,65535.00
2018-06-27T10:13:12.953Z,65535.00
2018-06-27T10:14:12.184Z,65535.00
2018-06-27T10:15:11.881Z,65535.00
2018-06-27T10:16:36.381Z,65535.00
2018-06-27T10:17:37.422Z,65535.00
2018-06-27T10:18:37.384Z,65535.00
2018-06-27T10:19:37.318Z,65535.00
2018-06-27T10:20:36.935Z,65535.00
2018-06-27T10:21:36.914Z,65535.00
2018-06-27T10:22:58.434Z,65535.00
2018-06-27T10:23:58.934Z,65535.00
2018-06-27T10:24:59.056Z,65535.00
2018-06-27T10:25:59.316Z,28152.00
2018-06-27T10:26:58.939Z,65535.00
2018-06-27T10:27:58.600Z,65535.00
2018-06-27T10:28:58.067Z,65535.00
2018-06-27T10:29:59.044Z,65535.00
2018-06-27T10:30:59.298Z,65535.00
2018-06-27T10:31:58.863Z,65535.00
2018-06-27T10:32:58.392Z,65535.00
2018-06-27T10:33:58.369Z,65535.00
2018-06-27T10:34:59.763Z,65535.00
2018-06-27T10:35:58.268Z,65535.00
2018-06-27T10:36:58.720Z,65535.00
2018-06-27T10:37:58.183Z,65535.00
2018-06-27T10:38:59.119Z,65535.00
2018-06-27T10:39:59.144Z,65535.00
2018-06-27T10:40:59.696Z,65535.00
2018-06-27T10:41:58.774Z,65535.00
2018-06-27T10:42:58.314Z,65535.00
2018-06-27T10:43:59.237Z,65535.00
2018-06-27T10:44:59.100Z,65535.00
2018-06-27T10:45:58.730Z,65535.00
2018-06-27T10:46:59.160Z,65535.00
2018-06-27T10:47:59.003Z,65535.00
2018-06-27T10:49:22.738Z,65535.00
2018-06-27T10:50:22.391Z,65535.00
2018-06-27T10:51:45.153Z,65535.00
2018-06-27T10:52:45.772Z,65535.00
2018-06-27T10:54:08.976Z,65535.00
2018-06-27T10:55:09.389Z,65535.00
2018-06-27T10:56:32.607Z,65535.00
2018-06-27T10:57:33.276Z,65535.00
2018-06-27T10:58:33.258Z,65535.00
2018-06-27T10:59:32.816Z,65535.00
2018-06-27T11:00:33.473Z,65535.00
2018-06-27T11:01:33.490Z,65535.00
2018-06-27T11:02:33.313Z,65535.00
2018-06-27T11:03:32.641Z,65535.00
2018-06-27T11:04:33.224Z,65535.00
2018-06-27T11:05:32.876Z,65535.00
2018-06-27T11:06:32.902Z,65535.00
2018-06-27T11:07:33.751Z,65535.00
2018-06-27T11:08:33.668Z,65535.00
2018-06-27T11:09:57.244Z,65535.00
2018-06-27T11:10:58.141Z,65535.00
2018-06-27T11:12:21.319Z,65535.00
2018-06-27T11:13:21.854Z,65535.00
2018-06-27T11:14:21.343Z,65535.00
2018-06-27T11:15:22.611Z,65535.00
2018-06-27T11:16:22.615Z,65535.00
2018-06-27T11:17:43.451Z,65535.00
2018-06-27T11:18:45.000Z,65535.00
2018-06-27T11:19:43.690Z,65535.00
2018-06-27T11:20:45.236Z,65535.00
2018-06-27T11:21:44.322Z,65535.00
2018-06-27T11:22:43.818Z,65535.00
2018-06-27T11:23:44.489Z,65535.00
2018-06-27T11:25:07.582Z,65535.00
2018-06-27T11:26:31.864Z,65535.00
2018-06-27T11:27:56.409Z,65535.00
2018-06-27T11:28:57.076Z,65535.00
2018-06-27T11:29:57.003Z,29912.00
2018-06-27T11:30:57.058Z,65535.00
2018-06-27T11:31:56.832Z,65535.00
2018-06-27T11:32:57.200Z,65535.00
2018-06-27T11:33:57.037Z,65535.00
2018-06-27T11:34:57.685Z,65535.00
2018-06-27T11:35:56.326Z,65535.00
2018-06-27T11:36:56.890Z,65535.00
2018-06-27T11:37:56.641Z,65535.00
2018-06-27T11:38:57.387Z,32808.00
2018-06-27T11:39:57.068Z,65535.00
2018-06-27T11:40:56.902Z,65535.00
2018-06-27T11:42:18.129Z,65535.00
2018-06-27T11:43:18.840Z,65535.00
2018-06-27T11:44:18.581Z,40720.00
2018-06-27T11:45:41.594Z,65535.00
2018-06-27T11:47:05.953Z,65535.00
2018-06-27T11:48:07.263Z,65535.00
2018-06-27T11:49:06.755Z,65535.00
2018-06-27T11:50:06.694Z,65535.00
2018-06-27T11:51:06.342Z,45752.00
2018-06-27T11:52:06.469Z,65535.00
2018-06-27T11:53:06.294Z,17856.00
2018-06-27T11:54:06.768Z,65535.00
2018-06-27T11:55:06.551Z,65535.00
2018-06-27T11:56:06.101Z,65535.00
2018-06-27T11:57:06.856Z,65535.00
2018-06-27T11:58:06.464Z,65535.00
2018-06-27T11:59:06.010Z,65535.00
2018-06-27T12:00:06.797Z,65535.00
2018-06-27T12:01:06.623Z,65535.00
2018-06-27T12:02:30.567Z,65535.00
2018-06-27T12:03:31.217Z,65535.00
2018-06-27T12:04:31.512Z,65535.00
2018-06-27T12:05:31.394Z,65535.00
2018-06-27T12:06:31.187Z,65535.00
2018-06-27T12:07:30.826Z,65535.00
2018-06-27T12:08:31.582Z,65535.00
2018-06-27T12:09:31.506Z,65535.00
2018-06-27T12:10:31.205Z,36040.00
2018-06-27T12:11:31.150Z,24784.00
2018-06-27T12:12:30.722Z,24680.00
2018-06-27T12:13:31.176Z,65535.00
2018-06-27T12:14:55.113Z,26368.00
2018-06-27T12:16:18.750Z,24520.00
2018-06-27T12:17:19.596Z,36064.00
2018-06-27T12:18:19.324Z,24440.00
2018-06-27T12:19:18.979Z,23200.00
2018-06-27T12:20:42.727Z,23696.00
2018-06-27T12:21:43.659Z,22600.00
2018-06-27T12:22:43.461Z,65535.00
2018-06-27T12:24:06.739Z,65535.00
2018-06-27T12:25:07.710Z,65535.00
2018-06-27T12:26:06.472Z,37088.00
2018-06-27T12:27:08.130Z,38152.00
2018-06-27T12:28:07.129Z,28760.00
2018-06-27T12:29:06.737Z,23600.00
2018-06-27T12:30:07.553Z,23640.00
2018-06-27T12:31:07.067Z,24328.00
2018-06-27T12:32:06.909Z,30640.00
2018-06-27T12:33:06.525Z,65535.00
2018-06-27T12:34:07.287Z,26168.00
2018-06-27T12:35:07.196Z,65535.00
2018-06-27T12:36:29.767Z,65535.00
2018-06-27T12:37:30.195Z,22024.00
2018-06-27T12:39:15.790Z,28144.00
2018-06-27T12:40:16.264Z,27696.00
2018-06-27T12:41:15.808Z,31288.00
2018-06-27T12:42:16.285Z,32016.00
2018-06-27T12:43:16.702Z,45456.00
2018-06-27T12:44:17.444Z,30768.00
2018-06-27T12:45:16.028Z,38408.00
2018-06-27T12:46:16.701Z,25400.00
2018-06-27T12:47:16.481Z,23128.00
2018-06-27T12:48:38.786Z,27352.00
2018-06-27T12:49:39.282Z,39312.00
2018-06-27T12:50:39.731Z,65535.00
2018-06-27T12:51:39.697Z,65535.00
2018-06-27T12:52:39.806Z,65535.00